createdAt,value
2023-03-22T00:01:23.753Z,98.50
2023-03-22T00:03:52.702Z,98.50
2023-03-22T00:06:20.443Z,98.50
2023-03-22T00:08:51.240Z,98.50
2023-03-22T00:11:19.557Z,98.50
2023-03-22T00:13:47.532Z,98.50
2023-03-22T00:16:17.579Z,98.50
2023-03-22T00:18:45.623Z,99.00
2023-03-22T00:21:15.584Z,99.30
2023-03-22T00:23:43.017Z,99.30
2023-03-22T00:26:13.944Z,99.20
2023-03-22T00:28:41.878Z,99.40
2023-03-22T00:31:09.744Z,99.80
2023-03-22T00:33:37.654Z,99.70
2023-03-22T00:36:11.111Z,99.80
2023-03-22T00:38:42.946Z,99.90
2023-03-22T00:41:19.489Z,99.90
2023-03-22T00:43:48.080Z,99.90
2023-03-22T00:46:17.005Z,99.90
2023-03-22T00:48:44.056Z,99.90
2023-03-22T00:51:12.465Z,99.90
2023-03-22T00:53:42.811Z,99.90
2023-03-22T00:56:14.330Z,99.90
2023-03-22T00:59:05.567Z,99.90
2023-03-22T01:01:32.834Z,99.90
2023-03-22T01:04:00.178Z,99.90
2023-03-22T01:06:27.713Z,99.90
2023-03-22T01:08:55.302Z,99.90
2023-03-22T01:11:22.996Z,99.90
2023-03-22T01:13:50.439Z,99.90
2023-03-22T01:16:18.306Z,99.90
2023-03-22T01:18:45.549Z,99.90
2023-03-22T01:21:13.529Z,99.90
2023-03-22T01:23:40.942Z,99.90
2023-03-22T01:26:08.012Z,99.90
2023-03-22T01:28:35.024Z,99.90
2023-03-22T01:31:03.213Z,99.90
2023-03-22T01:33:31.405Z,99.90
2023-03-22T01:35:59.581Z,99.90
2023-03-22T01:38:27.951Z,99.90
2023-03-22T01:40:58.782Z,99.90
2023-03-22T01:43:29.044Z,99.90
2023-03-22T01:45:57.941Z,99.90
2023-03-22T01:48:55.822Z,99.90
2023-03-22T01:51:28.755Z,99.90
2023-03-22T01:54:40.656Z,99.90
2023-03-22T01:57:21.159Z,99.90
2023-03-22T01:59:50.353Z,99.90
2023-03-22T02:02:40.677Z,99.90
2023-03-22T02:05:22.326Z,99.90
2023-03-22T02:07:50.937Z,99.90
2023-03-22T02:10:24.892Z,99.90
2023-03-22T02:13:22.610Z,99.90
2023-03-22T02:16:39.426Z,99.90
2023-03-22T02:19:45.768Z,99.90
2023-03-22T02:22:32.093Z,99.90
2023-03-22T02:25:21.168Z,99.90
2023-03-22T02:28:06.667Z,99.90
2023-03-22T02:31:14.720Z,99.90
2023-03-22T02:34:07.061Z,99.90
2023-03-22T02:36:46.101Z,99.90
2023-03-22T02:39:28.485Z,99.90
2023-03-22T02:42:13.374Z,99.90
2023-03-22T02:44:43.896Z,99.90
2023-03-22T02:47:42.691Z,99.90
2023-03-22T02:50:20.866Z,99.90
2023-03-22T02:52:56.154Z,99.90
2023-03-22T02:55:39.471Z,99.90
2023-03-22T02:58:39.441Z,99.90
2023-03-22T03:01:15.603Z,99.90
2023-03-22T03:03:48.235Z,99.90
2023-03-22T03:06:19.774Z,99.90
2023-03-22T03:08:50.877Z,99.90
2023-03-22T03:11:18.720Z,99.90
2023-03-22T03:13:49.185Z,99.90
2023-03-22T03:16:20.782Z,99.90
2023-03-22T03:18:57.462Z,99.90
2023-03-22T03:21:37.513Z,99.90
2023-03-22T03:24:17.709Z,99.90
2023-03-22T03:27:04.746Z,99.90
2023-03-22T03:29:46.578Z,99.90
2023-03-22T03:32:26.021Z,99.90
2023-03-22T03:34:59.582Z,99.90
2023-03-22T03:37:47.261Z,99.90
2023-03-22T03:40:24.954Z,99.90
2023-03-22T03:42:54.298Z,99.90
2023-03-22T03:45:22.263Z,99.90
2023-03-22T03:47:57.024Z,99.90
2023-03-22T03:50:26.169Z,99.90
2023-03-22T03:52:56.386Z,99.90
2023-03-22T03:55:24.685Z,99.90
2023-03-22T03:57:51.694Z,99.90
2023-03-22T04:00:19.169Z,99.90
2023-03-22T04:03:06.445Z,99.90
2023-03-22T04:05:53.379Z,99.90
2023-03-22T04:08:20.455Z,99.90
2023-03-22T04:10:51.979Z,99.90
2023-03-22T04:13:24.864Z,99.90
2023-03-22T04:15:55.265Z,99.90
2023-03-22T04:18:23.059Z,99.90
2023-03-22T04:20:53.742Z,99.90
2023-03-22T04:23:23.575Z,99.90
2023-03-22T04:25:51.161Z,99.90
2023-03-22T04:28:30.040Z,99.90
2023-03-22T04:30:57.478Z,99.90
2023-03-22T04:33:47.406Z,99.90
2023-03-22T04:36:39.334Z,99.90
2023-03-22T04:39:24.686Z,99.90
2023-03-22T04:41:59.606Z,99.90
2023-03-22T04:44:27.197Z,99.90
2023-03-22T04:46:54.230Z,99.90
2023-03-22T04:49:21.916Z,99.90
2023-03-22T04:51:49.070Z,99.90
2023-03-22T04:54:51.102Z,99.90
2023-03-22T04:57:18.146Z,99.90
2023-03-22T04:59:47.917Z,99.90
2023-03-22T05:02:14.821Z,99.90
2023-03-22T05:04:43.840Z,99.90
2023-03-22T05:07:20.526Z,99.90
2023-03-22T05:09:52.514Z,99.90
2023-03-22T05:12:19.708Z,99.90
2023-03-22T05:14:52.339Z,99.90
2023-03-22T05:17:23.882Z,99.90
2023-03-22T05:19:54.626Z,99.90
2023-03-22T05:22:22.514Z,99.90
2023-03-22T05:24:51.316Z,99.90
2023-03-22T05:27:31.293Z,99.90
2023-03-22T05:30:11.943Z,99.90
2023-03-22T05:32:50.374Z,99.90
2023-03-22T05:35:24.080Z,99.90
2023-03-22T05:37:54.330Z,99.90
2023-03-22T05:40:22.137Z,99.90
2023-03-22T05:42:49.773Z,99.90
2023-03-22T05:45:22.181Z,99.90
2023-03-22T05:47:59.141Z,99.90
2023-03-22T05:50:27.699Z,99.90
2023-03-22T05:52:54.698Z,99.90
2023-03-22T05:55:30.317Z,99.90
2023-03-22T05:58:02.897Z,99.90
2023-03-22T06:00:32.325Z,99.90
2023-03-22T06:03:18.315Z,99.90
2023-03-22T06:05:54.923Z,99.90
2023-03-22T06:08:34.103Z,99.90
2023-03-22T06:11:01.431Z,99.90
2023-03-22T06:13:28.464Z,99.90
2023-03-22T06:15:56.050Z,99.90
2023-03-22T06:18:25.592Z,99.90
2023-03-22T06:21:02.020Z,99.90
2023-03-22T06:23:29.187Z,99.90
2023-03-22T06:25:56.302Z,99.90
2023-03-22T06:28:26.609Z,99.90
2023-03-22T06:30:54.916Z,99.90
2023-03-22T06:33:29.788Z,99.00
2023-03-22T06:36:07.178Z,98.20
2023-03-22T06:38:49.210Z,97.90
2023-03-22T06:41:16.085Z,97.70
2023-03-22T06:43:43.098Z,96.90
2023-03-22T06:46:23.715Z,96.00
2023-03-22T06:49:00.314Z,96.40
2023-03-22T06:51:27.471Z,95.80
2023-03-22T06:53:55.727Z,96.00
2023-03-22T06:56:23.083Z,96.20
2023-03-22T06:58:54.649Z,96.30
2023-03-22T07:01:22.102Z,95.40
2023-03-22T07:03:49.844Z,95.50
2023-03-22T07:06:18.888Z,95.30
2023-03-22T07:08:50.875Z,95.20
2023-03-22T07:11:23.014Z,94.00
2023-03-22T07:13:58.665Z,94.30
2023-03-22T07:16:32.332Z,94.20
2023-03-22T07:19:02.027Z,93.50
2023-03-22T07:21:29.163Z,93.50
2023-03-22T07:24:01.630Z,93.80
2023-03-22T07:26:30.863Z,93.60
2023-03-22T07:28:59.748Z,93.50
2023-03-22T07:31:31.619Z,92.50
2023-03-22T07:34:04.774Z,91.90
2023-03-22T07:36:38.381Z,91.70
2023-03-22T07:39:09.318Z,91.20
2023-03-22T07:41:40.932Z,90.40
2023-03-22T07:44:25.926Z,87.80
2023-03-22T07:47:30.630Z,86.60
2023-03-22T07:50:23.679Z,86.80
2023-03-22T07:52:56.093Z,85.50
2023-03-22T07:55:23.109Z,84.50
2023-03-22T07:57:51.244Z,84.20
2023-03-22T08:00:19.533Z,84.30
2023-03-22T08:02:56.753Z,82.90
2023-03-22T08:05:49.823Z,81.80
2023-03-22T08:08:17.545Z,79.90
2023-03-22T08:10:50.806Z,78.20
2023-03-22T08:13:18.269Z,77.70
2023-03-22T08:15:45.879Z,77.70
2023-03-22T08:18:13.207Z,77.00
2023-03-22T08:20:41.355Z,77.90
2023-03-22T08:23:16.304Z,75.50
2023-03-22T08:26:03.339Z,75.10
2023-03-22T08:28:34.472Z,76.10
2023-03-22T08:31:01.665Z,75.30
2023-03-22T08:33:29.086Z,75.40
2023-03-22T08:36:07.426Z,74.30
2023-03-22T08:38:38.703Z,74.70
2023-03-22T08:41:07.151Z,75.30
2023-03-22T08:43:34.320Z,74.10
2023-03-22T08:46:01.443Z,74.50
2023-03-22T08:48:30.831Z,71.90
2023-03-22T08:51:22.278Z,72.10
2023-03-22T08:54:07.006Z,73.10
2023-03-22T08:56:59.168Z,72.70
2023-03-22T09:00:02.067Z,73.40
2023-03-22T09:02:39.068Z,71.30
2023-03-22T09:05:06.649Z,72.10
2023-03-22T09:07:34.139Z,72.60
2023-03-22T09:10:19.419Z,71.30
2023-03-22T09:12:49.441Z,72.00
2023-03-22T09:15:16.825Z,72.70
2023-03-22T09:17:48.058Z,71.20
2023-03-22T09:20:15.753Z,72.30
2023-03-22T09:22:45.949Z,73.90
2023-03-22T09:25:16.015Z,74.00
2023-03-22T09:27:46.481Z,75.60
2023-03-22T09:30:13.856Z,77.00
2023-03-22T09:32:41.542Z,75.90
2023-03-22T09:35:11.131Z,75.00
2023-03-22T09:37:53.543Z,75.10
2023-03-22T09:40:25.370Z,76.10
2023-03-22T09:42:57.664Z,74.20
2023-03-22T09:45:34.021Z,77.00
2023-03-22T09:48:03.728Z,77.90
2023-03-22T09:50:33.157Z,79.40
2023-03-22T09:53:01.155Z,80.70
2023-03-22T09:55:52.353Z,81.70
2023-03-22T09:58:29.414Z,82.20
2023-03-22T10:01:31.384Z,84.70
2023-03-22T10:04:26.668Z,88.90
2023-03-22T10:07:40.313Z,93.50
2023-03-22T10:10:20.257Z,97.20
2023-03-22T10:12:54.089Z,99.20
2023-03-22T10:15:41.272Z,99.90
2023-03-22T10:18:15.907Z,99.90
2023-03-22T10:20:52.215Z,99.90
2023-03-22T10:23:27.412Z,99.90
2023-03-22T10:25:58.866Z,99.90
2023-03-22T10:28:34.820Z,99.90
2023-03-22T10:31:04.413Z,99.90
2023-03-22T10:33:40.007Z,99.90
2023-03-22T10:36:13.179Z,99.90
2023-03-22T10:38:49.688Z,99.90
2023-03-22T10:41:19.376Z,99.90
2023-03-22T10:43:50.467Z,99.90
2023-03-22T10:46:23.622Z,99.90
2023-03-22T10:48:54.251Z,99.90
2023-03-22T10:51:29.779Z,99.90
2023-03-22T10:53:58.291Z,99.90
2023-03-22T10:56:25.651Z,99.90
2023-03-22T10:58:54.708Z,99.90
2023-03-22T11:01:39.977Z,99.90
2023-03-22T11:04:14.443Z,99.90
2023-03-22T11:06:52.360Z,99.90
2023-03-22T11:09:23.736Z,99.90
2023-03-22T11:11:56.700Z,99.90
2023-03-22T11:14:27.886Z,99.90
2023-03-22T11:17:07.073Z,99.90
2023-03-22T11:19:36.629Z,99.90
2023-03-22T11:22:07.822Z,99.90
2023-03-22T11:24:35.748Z,99.90
2023-03-22T11:27:06.969Z,99.90
2023-03-22T11:29:43.348Z,99.90
2023-03-22T11:32:30.231Z,99.90
2023-03-22T11:35:20.000Z,99.90
2023-03-22T11:37:49.755Z,99.90
2023-03-22T11:40:29.314Z,99.80
2023-03-22T11:43:20.723Z,96.90
2023-03-22T11:45:51.937Z,96.30
2023-03-22T11:48:23.400Z,97.50
2023-03-22T11:50:55.868Z,97.00
2023-03-22T11:53:26.293Z,96.20
2023-03-22T11:55:57.882Z,94.60
2023-03-22T11:58:28.334Z,95.20
2023-03-22T12:00:59.704Z,94.70
2023-03-22T12:03:39.878Z,94.80
2023-03-22T12:06:24.413Z,94.10
2023-03-22T12:09:07.912Z,94.70
2023-03-22T12:11:41.867Z,94.00
2023-03-22T12:14:30.020Z,93.80
2023-03-22T12:17:06.961Z,94.40
2023-03-22T12:19:51.317Z,93.30
2023-03-22T12:22:31.158Z,92.70
2023-03-22T12:25:00.207Z,93.80
2023-03-22T12:27:37.883Z,93.30
2023-03-22T12:30:14.147Z,92.80
2023-03-22T12:32:49.160Z,92.80
2023-03-22T12:35:29.667Z,92.50
2023-03-22T12:38:00.344Z,92.10
2023-03-22T12:40:37.254Z,92.90
2023-03-22T12:43:08.382Z,92.80
2023-03-22T12:45:42.881Z,92.60
2023-03-22T12:48:41.427Z,92.40
2023-03-22T12:51:11.975Z,92.20
2023-03-22T12:54:00.428Z,92.40
2023-03-22T12:56:44.396Z,92.60
2023-03-22T12:59:29.129Z,92.70
2023-03-22T13:02:16.843Z,93.30
2023-03-22T13:04:46.811Z,93.10
2023-03-22T13:07:13.730Z,93.60
2023-03-22T13:09:51.138Z,94.10
2023-03-22T13:12:18.558Z,93.90
2023-03-22T13:15:00.295Z,93.10
2023-03-22T13:17:27.585Z,94.50
2023-03-22T13:19:58.499Z,94.30
2023-03-22T13:22:50.460Z,94.60
2023-03-22T13:25:18.889Z,93.50
2023-03-22T13:27:46.050Z,93.80
2023-03-22T13:30:24.826Z,93.40
2023-03-22T13:33:07.238Z,93.80
2023-03-22T13:35:51.319Z,94.00
2023-03-22T13:38:27.711Z,93.80
2023-03-22T13:41:06.557Z,93.50
2023-03-22T13:43:39.683Z,94.60
2023-03-22T13:46:12.297Z,94.90
2023-03-22T13:48:49.605Z,94.50
2023-03-22T13:51:34.726Z,95.00
2023-03-22T13:54:13.738Z,95.40
2023-03-22T13:56:43.805Z,95.10
2023-03-22T13:59:30.027Z,96.40
2023-03-22T14:02:27.793Z,97.80
2023-03-22T14:05:17.671Z,99.90
2023-03-22T14:07:52.905Z,99.90
2023-03-22T14:10:28.253Z,99.90
2023-03-22T14:13:19.398Z,99.90
2023-03-22T14:15:50.805Z,99.90
2023-03-22T14:18:30.185Z,99.90
2023-03-22T14:21:30.569Z,99.90
